Hlavní strana
METAR-TAF:

METAR-TAF

Letiště :

Olive Branch Airport

Olive Branch, Mississippi, Spojené státy americké

zeměpisná šířka: 34-58-44N, zeměpisná délka: 089-47-13W, výška: 122 m

Aktuální stav počasí

Zpráva byla vytvořena před 23 minutami, v 05:55 UTC
Jihovýchodní vítr 5 kt
Teplota 8°C
Vlhkost vzduchu 39%
Tlak 1019 hPa
Viditelnost: 16.1 km
Zataženo ve výšce 2700 ft

METAR: KOLV 240555Z AUTO 14005KT 10SM OVC027 08/M05 A3009 RMK A01

Čas: 00:18 (06:18 UTC)


TAF: chybějící

Stav a předpovědi počasí z více než 4 000 letišť (zprávy METAR a TAF).

Červené a žluté tečky na mapě představují dostupné meteorologické stanice.

Když kurzor umístíte na tečku, zobrazí se název stanice.

Pak kliknutím zobrazíte stav a předpověď počasí.

Chcete-li změnit mapu, kliknutím na zelené tlačítko se znaménkem +mapu přiblížíte, kliknutím na zelené tlačítko se znaménkem – mapu oddálíte a kliknutím na zelené šipky přejdete na sousední mapy.


METAR-TAF: